sensor_id;sensor_type;location;lat;lon;timestamp;P1;durP1;ratioP1;P2;durP2;ratioP2
31584;SDS011;18191;51.288;12.390;2024-02-23T00:01:39;1.77;;;0.57;;
31584;SDS011;18191;51.288;12.390;2024-02-23T00:06:29;2.57;;;0.73;;
31584;SDS011;18191;51.288;12.390;2024-02-23T00:11:20;2.55;;;0.47;;
31584;SDS011;18191;51.288;12.390;2024-02-23T00:16:11;1.27;;;0.50;;
31584;SDS011;18191;51.288;12.390;2024-02-23T00:21:01;4.10;;;0.50;;
31584;SDS011;18191;51.288;12.390;2024-02-23T00:25:51;1.30;;;0.50;;
31584;SDS011;18191;51.288;12.390;2024-02-23T00:30:42;1.65;;;0.68;;
31584;SDS011;18191;51.288;12.390;2024-02-23T00:35:32;2.65;;;0.68;;
31584;SDS011;18191;51.288;12.390;2024-02-23T00:40:22;1.80;;;0.60;;
31584;SDS011;18191;51.288;12.390;2024-02-23T00:45:15;1.10;;;0.50;;
31584;SDS011;18191;51.288;12.390;2024-02-23T00:50:06;0.80;;;0.50;;
31584;SDS011;18191;51.288;12.390;2024-02-23T00:54:56;4.45;;;0.52;;
31584;SDS011;18191;51.288;12.390;2024-02-23T00:59:46;1.40;;;0.55;;
31584;SDS011;18191;51.288;12.390;2024-02-23T01:04:37;0.50;;;0.40;;
31584;SDS011;18191;51.288;12.390;2024-02-23T01:09:27;3.70;;;0.57;;
31584;SDS011;18191;51.288;12.390;2024-02-23T01:14:17;0.32;;;0.20;;
31584;SDS011;18191;51.288;12.390;2024-02-23T01:19:07;6.13;;;0.85;;
31584;SDS011;18191;51.288;12.390;2024-02-23T01:23:59;2.30;;;0.50;;
31584;SDS011;18191;51.288;12.390;2024-02-23T01:28:50;1.60;;;0.70;;
31584;SDS011;18191;51.288;12.390;2024-02-23T01:33:40;0.98;;;0.50;;
31584;SDS011;18191;51.288;12.390;2024-02-23T01:38:31;0.37;;;0.37;;
31584;SDS011;18191;51.288;12.390;2024-02-23T01:43:22;0.85;;;0.40;;
31584;SDS011;18191;51.288;12.390;2024-02-23T01:48:12;1.13;;;0.55;;
31584;SDS011;18191;51.288;12.390;2024-02-23T01:53:03;1.13;;;0.50;;
31584;SDS011;18191;51.288;12.390;2024-02-23T01:57:54;0.57;;;0.52;;
31584;SDS011;18191;51.288;12.390;2024-02-23T02:02:45;0.82;;;0.68;;
31584;SDS011;18191;51.288;12.390;2024-02-23T02:07:35;1.90;;;0.37;;
31584;SDS011;18191;51.288;12.390;2024-02-23T02:12:26;0.47;;;0.40;;
31584;SDS011;18191;51.288;12.390;2024-02-23T02:17:17;0.30;;;0.30;;
31584;SDS011;18191;51.288;12.390;2024-02-23T02:22:07;0.53;;;0.30;;
31584;SDS011;18191;51.288;12.390;2024-02-23T02:26:57;0.50;;;0.40;;
31584;SDS011;18191;51.288;12.390;2024-02-23T02:31:48;1.20;;;0.40;;
31584;SDS011;18191;51.288;12.390;2024-02-23T02:36:38;7.97;;;0.47;;
31584;SDS011;18191;51.288;12.390;2024-02-23T02:41:28;0.40;;;0.30;;
31584;SDS011;18191;51.288;12.390;2024-02-23T02:46:22;0.15;;;0.15;;
31584;SDS011;18191;51.288;12.390;2024-02-23T02:51:12;5.32;;;0.20;;
31584;SDS011;18191;51.288;12.390;2024-02-23T02:56:05;0.10;;;0.10;;
31584;SDS011;18191;51.288;12.390;2024-02-23T03:00:56;0.38;;;0.20;;
31584;SDS011;18191;51.288;12.390;2024-02-23T03:05:46;0.17;;;0.17;;
31584;SDS011;18191;51.288;12.390;2024-02-23T03:10:36;2.23;;;0.30;;
31584;SDS011;18191;51.288;12.390;2024-02-23T03:15:27;3.17;;;0.35;;
31584;SDS011;18191;51.288;12.390;2024-02-23T03:20:17;0.13;;;0.13;;
31584;SDS011;18191;51.288;12.390;2024-02-23T03:25:07;1.77;;;0.40;;
31584;SDS011;18191;51.288;12.390;2024-02-23T03:29:58;0.22;;;0.22;;
31584;SDS011;18191;51.288;12.390;2024-02-23T03:34:48;1.65;;;0.30;;
31584;SDS011;18191;51.288;12.390;2024-02-23T03:39:39;1.88;;;0.35;;
31584;SDS011;18191;51.288;12.390;2024-02-23T03:44:29;0.23;;;0.20;;
31584;SDS011;18191;51.288;12.390;2024-02-23T03:49:19;0.68;;;0.20;;
31584;SDS011;18191;51.288;12.390;2024-02-23T03:54:10;0.75;;;0.20;;
31584;SDS011;18191;51.288;12.390;2024-02-23T03:59:00;4.55;;;0.57;;
31584;SDS011;18191;51.288;12.390;2024-02-23T04:03:50;0.38;;;0.20;;
31584;SDS011;18191;51.288;12.390;2024-02-23T04:08:40;1.83;;;0.40;;
31584;SDS011;18191;51.288;12.390;2024-02-23T04:13:32;1.65;;;0.30;;
31584;SDS011;18191;51.288;12.390;2024-02-23T04:18:22;0.47;;;0.25;;
31584;SDS011;18191;51.288;12.390;2024-02-23T04:23:12;3.80;;;0.30;;
31584;SDS011;18191;51.288;12.390;2024-02-23T04:28:03;0.30;;;0.17;;
31584;SDS011;18191;51.288;12.390;2024-02-23T04:32:53;0.10;;;0.10;;
31584;SDS011;18191;51.288;12.390;2024-02-23T04:37:44;0.32;;;0.20;;
31584;SDS011;18191;51.288;12.390;2024-02-23T04:47:25;1.85;;;0.13;;
31584;SDS011;18191;51.288;12.390;2024-02-23T04:52:15;1.48;;;0.50;;
31584;SDS011;18191;51.288;12.390;2024-02-23T04:57:06;0.77;;;0.25;;
31584;SDS011;18191;51.288;12.390;2024-02-23T05:01:56;1.20;;;0.10;;
31584;SDS011;18191;51.288;12.390;2024-02-23T05:06:46;2.08;;;0.40;;
31584;SDS011;18191;51.288;12.390;2024-02-23T05:11:36;0.64;;;0.18;;
31584;SDS011;18191;51.288;12.390;2024-02-23T05:16:27;0.53;;;0.10;;
31584;SDS011;18191;51.288;12.390;2024-02-23T05:21:18;0.10;;;0.10;;
31584;SDS011;18191;51.288;12.390;2024-02-23T05:26:08;1.27;;;0.15;;
31584;SDS011;18191;51.288;12.390;2024-02-23T05:30:59;0.10;;;0.10;;
31584;SDS011;18191;51.288;12.390;2024-02-23T05:35:49;0.57;;;0.17;;
31584;SDS011;18191;51.288;12.390;2024-02-23T05:40:39;0.30;;;0.20;;
31584;SDS011;18191;51.288;12.390;2024-02-23T05:45:29;0.03;;;0.03;;
31584;SDS011;18191;51.288;12.390;2024-02-23T05:50:20;0.40;;;0.20;;
31584;SDS011;18191;51.288;12.390;2024-02-23T05:55:11;1.93;;;0.43;;
31584;SDS011;18191;51.288;12.390;2024-02-23T06:00:01;0.45;;;0.10;;
31584;SDS011;18191;51.288;12.390;2024-02-23T06:04:51;0.53;;;0.27;;
31584;SDS011;18191;51.288;12.390;2024-02-23T06:09:42;1.60;;;0.10;;
31584;SDS011;18191;51.288;12.390;2024-02-23T06:14:33;0.45;;;0.20;;
31584;SDS011;18191;51.288;12.390;2024-02-23T06:19:23;3.45;;;0.40;;
31584;SDS011;18191;51.288;12.390;2024-02-23T06:24:13;1.93;;;0.20;;
31584;SDS011;18191;51.288;12.390;2024-02-23T06:29:04;0.83;;;0.30;;
31584;SDS011;18191;51.288;12.390;2024-02-23T06:33:55;0.57;;;0.22;;
31584;SDS011;18191;51.288;12.390;2024-02-23T06:38:46;1.88;;;0.45;;
31584;SDS011;18191;51.288;12.390;2024-02-23T06:43:36;0.43;;;0.20;;
31584;SDS011;18191;51.288;12.390;2024-02-23T06:48:27;2.13;;;0.30;;
31584;SDS011;18191;51.288;12.390;2024-02-23T06:53:17;0.77;;;0.23;;
31584;SDS011;18191;51.288;12.390;2024-02-23T06:58:07;0.30;;;0.30;;
31584;SDS011;18191;51.288;12.390;2024-02-23T07:02:59;0.52;;;0.30;;
31584;SDS011;18191;51.288;12.390;2024-02-23T07:07:53;1.10;;;0.20;;
31584;SDS011;18191;51.288;12.390;2024-02-23T07:12:43;0.83;;;0.30;;
31584;SDS011;18191;51.288;12.390;2024-02-23T07:17:34;0.47;;;0.47;;
31584;SDS011;18191;51.288;12.390;2024-02-23T07:22:24;0.80;;;0.27;;
31584;SDS011;18191;51.288;12.390;2024-02-23T07:27:15;4.23;;;0.50;;
31584;SDS011;18191;51.288;12.390;2024-02-23T07:32:05;0.63;;;0.20;;
31584;SDS011;18191;51.288;12.390;2024-02-23T07:36:56;8.77;;;0.30;;
31584;SDS011;18191;51.288;12.390;2024-02-23T07:41:46;0.63;;;0.30;;
31584;SDS011;18191;51.288;12.390;2024-02-23T07:46:37;1.07;;;0.30;;
31584;SDS011;18191;51.288;12.390;2024-02-23T07:51:27;2.23;;;0.33;;
31584;SDS011;18191;51.288;12.390;2024-02-23T07:56:18;3.28;;;0.40;;
31584;SDS011;18191;51.288;12.390;2024-02-23T08:01:08;0.24;;;0.12;;
31584;SDS011;18191;51.288;12.390;2024-02-23T08:05:59;1.92;;;0.80;;
31584;SDS011;18191;51.288;12.390;2024-02-23T08:10:49;1.13;;;0.50;;
31584;SDS011;18191;51.288;12.390;2024-02-23T08:15:40;0.65;;;0.47;;
31584;SDS011;18191;51.288;12.390;2024-02-23T08:20:30;3.35;;;0.20;;
31584;SDS011;18191;51.288;12.390;2024-02-23T08:25:20;3.23;;;0.30;;
31584;SDS011;18191;51.288;12.390;2024-02-23T08:30:11;2.08;;;0.56;;
31584;SDS011;18191;51.288;12.390;2024-02-23T08:35:03;3.25;;;0.38;;
31584;SDS011;18191;51.288;12.390;2024-02-23T08:39:54;3.33;;;0.40;;
31584;SDS011;18191;51.288;12.390;2024-02-23T08:44:44;0.57;;;0.28;;
31584;SDS011;18191;51.288;12.390;2024-02-23T08:49:35;3.08;;;0.20;;
31584;SDS011;18191;51.288;12.390;2024-02-23T08:54:25;7.15;;;0.30;;
31584;SDS011;18191;51.288;12.390;2024-02-23T08:59:15;1.00;;;0.40;;
31584;SDS011;18191;51.288;12.390;2024-02-23T09:04:05;0.20;;;0.20;;
31584;SDS011;18191;51.288;12.390;2024-02-23T09:08:56;16.60;;;0.90;;
31584;SDS011;18191;51.288;12.390;2024-02-23T09:13:46;2.23;;;0.73;;
31584;SDS011;18191;51.288;12.390;2024-02-23T09:18:36;2.57;;;0.50;;
31584;SDS011;18191;51.288;12.390;2024-02-23T09:23:27;1.98;;;0.20;;
31584;SDS011;18191;51.288;12.390;2024-02-23T09:28:17;1.17;;;0.50;;
31584;SDS011;18191;51.288;12.390;2024-02-23T09:33:07;0.93;;;0.57;;
31584;SDS011;18191;51.288;12.390;2024-02-23T09:37:58;3.83;;;0.88;;
31584;SDS011;18191;51.288;12.390;2024-02-23T09:42:50;0.70;;;0.25;;
31584;SDS011;18191;51.288;12.390;2024-02-23T09:47:48;3.00;;;0.35;;
31584;SDS011;18191;51.288;12.390;2024-02-23T09:52:39;4.77;;;0.60;;
31584;SDS011;18191;51.288;12.390;2024-02-23T09:57:30;2.97;;;0.40;;
31584;SDS011;18191;51.288;12.390;2024-02-23T10:02:20;0.67;;;0.60;;
31584;SDS011;18191;51.288;12.390;2024-02-23T10:07:14;2.92;;;0.25;;
31584;SDS011;18191;51.288;12.390;2024-02-23T10:12:04;2.55;;;0.40;;
31584;SDS011;18191;51.288;12.390;2024-02-23T10:16:55;4.72;;;0.60;;
31584;SDS011;18191;51.288;12.390;2024-02-23T10:21:45;3.13;;;0.47;;
31584;SDS011;18191;51.288;12.390;2024-02-23T10:26:36;3.28;;;1.25;;
31584;SDS011;18191;51.288;12.390;2024-02-23T10:31:26;2.53;;;0.50;;
31584;SDS011;18191;51.288;12.390;2024-02-23T10:36:17;1.47;;;0.57;;
31584;SDS011;18191;51.288;12.390;2024-02-23T10:41:09;2.70;;;0.70;;
31584;SDS011;18191;51.288;12.390;2024-02-23T10:46:03;5.03;;;0.40;;
31584;SDS011;18191;51.288;12.390;2024-02-23T10:50:57;0.10;;;0.10;;
31584;SDS011;18191;51.288;12.390;2024-02-23T10:55:50;2.33;;;0.75;;
31584;SDS011;18191;51.288;12.390;2024-02-23T11:00:46;1.05;;;0.38;;
31584;SDS011;18191;51.288;12.390;2024-02-23T11:05:37;0.63;;;0.50;;
31584;SDS011;18191;51.288;12.390;2024-02-23T11:10:27;2.20;;;0.60;;
31584;SDS011;18191;51.288;12.390;2024-02-23T11:15:25;1.30;;;0.30;;
31584;SDS011;18191;51.288;12.390;2024-02-23T11:20:17;0.20;;;0.20;;
31584;SDS011;18191;51.288;12.390;2024-02-23T11:25:07;2.33;;;0.40;;
31584;SDS011;18191;51.288;12.390;2024-02-23T11:34:56;4.43;;;1.60;;
31584;SDS011;18191;51.288;12.390;2024-02-23T11:39:47;3.35;;;0.57;;
31584;SDS011;18191;51.288;12.390;2024-02-23T11:44:42;3.55;;;0.60;;
31584;SDS011;18191;51.288;12.390;2024-02-23T11:49:32;5.53;;;0.40;;
31584;SDS011;18191;51.288;12.390;2024-02-23T11:54:22;4.53;;;0.50;;
31584;SDS011;18191;51.288;12.390;2024-02-23T11:59:13;2.63;;;0.63;;
31584;SDS011;18191;51.288;12.390;2024-02-23T12:04:03;2.90;;;0.53;;
31584;SDS011;18191;51.288;12.390;2024-02-23T12:08:53;4.00;;;0.77;;
31584;SDS011;18191;51.288;12.390;2024-02-23T12:13:44;3.17;;;0.60;;
31584;SDS011;18191;51.288;12.390;2024-02-23T12:18:36;2.53;;;0.40;;
31584;SDS011;18191;51.288;12.390;2024-02-23T12:23:27;5.65;;;1.23;;
31584;SDS011;18191;51.288;12.390;2024-02-23T12:28:27;2.80;;;0.73;;
31584;SDS011;18191;51.288;12.390;2024-02-23T12:33:17;4.68;;;0.52;;
31584;SDS011;18191;51.288;12.390;2024-02-23T12:38:08;1.00;;;0.63;;
31584;SDS011;18191;51.288;12.390;2024-02-23T12:42:59;4.82;;;0.52;;
31584;SDS011;18191;51.288;12.390;2024-02-23T12:47:49;2.10;;;0.70;;
31584;SDS011;18191;51.288;12.390;2024-02-23T12:52:39;0.22;;;0.10;;
31584;SDS011;18191;51.288;12.390;2024-02-23T12:57:29;1.23;;;0.50;;
31584;SDS011;18191;51.288;12.390;2024-02-23T13:02:20;4.18;;;0.47;;
31584;SDS011;18191;51.288;12.390;2024-02-23T13:07:11;5.03;;;0.80;;
31584;SDS011;18191;51.288;12.390;2024-02-23T13:12:01;4.00;;;0.60;;
31584;SDS011;18191;51.288;12.390;2024-02-23T13:16:51;1.20;;;0.50;;
31584;SDS011;18191;51.288;12.390;2024-02-23T13:21:41;7.40;;;0.63;;
31584;SDS011;18191;51.288;12.390;2024-02-23T13:26:32;1.92;;;0.50;;
31584;SDS011;18191;51.288;12.390;2024-02-23T13:31:22;4.03;;;0.73;;
31584;SDS011;18191;51.288;12.390;2024-02-23T13:36:13;6.60;;;0.77;;
31584;SDS011;18191;51.288;12.390;2024-02-23T13:41:03;2.15;;;0.68;;
31584;SDS011;18191;51.288;12.390;2024-02-23T13:45:55;0.85;;;0.30;;
31584;SDS011;18191;51.288;12.390;2024-02-23T13:50:46;3.90;;;0.40;;
31584;SDS011;18191;51.288;12.390;2024-02-23T13:55:37;4.60;;;0.60;;
31584;SDS011;18191;51.288;12.390;2024-02-23T14:00:27;4.20;;;0.60;;
31584;SDS011;18191;51.288;12.390;2024-02-23T14:05:17;3.72;;;0.80;;
31584;SDS011;18191;51.288;12.390;2024-02-23T14:10:11;2.22;;;0.43;;
31584;SDS011;18191;51.288;12.390;2024-02-23T14:15:02;1.65;;;0.50;;
31584;SDS011;18191;51.288;12.390;2024-02-23T14:19:52;5.95;;;0.60;;
31584;SDS011;18191;51.288;12.390;2024-02-23T14:24:43;6.10;;;0.82;;
31584;SDS011;18191;51.288;12.390;2024-02-23T14:29:33;0.87;;;0.50;;
31584;SDS011;18191;51.288;12.390;2024-02-23T14:34:23;1.40;;;0.53;;
31584;SDS011;18191;51.288;12.390;2024-02-23T14:39:14;4.93;;;0.80;;
31584;SDS011;18191;51.288;12.390;2024-02-23T14:44:04;1.38;;;0.32;;
31584;SDS011;18191;51.288;12.390;2024-02-23T14:48:57;1.88;;;0.85;;
31584;SDS011;18191;51.288;12.390;2024-02-23T14:53:48;1.13;;;0.30;;
31584;SDS011;18191;51.288;12.390;2024-02-23T14:58:38;9.55;;;0.95;;
31584;SDS011;18191;51.288;12.390;2024-02-23T15:03:28;1.40;;;0.53;;
31584;SDS011;18191;51.288;12.390;2024-02-23T15:08:19;1.60;;;0.53;;
31584;SDS011;18191;51.288;12.390;2024-02-23T15:13:09;6.28;;;0.52;;
31584;SDS011;18191;51.288;12.390;2024-02-23T15:17:59;3.13;;;0.70;;
31584;SDS011;18191;51.288;12.390;2024-02-23T15:27:41;8.95;;;0.60;;
31584;SDS011;18191;51.288;12.390;2024-02-23T15:32:31;1.20;;;0.60;;
31584;SDS011;18191;51.288;12.390;2024-02-23T15:37:22;2.72;;;0.40;;
31584;SDS011;18191;51.288;12.390;2024-02-23T15:42:12;0.93;;;0.40;;
31584;SDS011;18191;51.288;12.390;2024-02-23T15:47:03;3.25;;;0.57;;
31584;SDS011;18191;51.288;12.390;2024-02-23T15:51:53;4.17;;;1.07;;
31584;SDS011;18191;51.288;12.390;2024-02-23T15:56:44;7.07;;;0.50;;
31584;SDS011;18191;51.288;12.390;2024-02-23T16:01:35;5.20;;;0.80;;
31584;SDS011;18191;51.288;12.390;2024-02-23T16:06:26;2.72;;;0.85;;
31584;SDS011;18191;51.288;12.390;2024-02-23T16:11:19;2.45;;;0.45;;
31584;SDS011;18191;51.288;12.390;2024-02-23T16:16:10;3.53;;;0.73;;
31584;SDS011;18191;51.288;12.390;2024-02-23T16:25:51;4.33;;;0.50;;
31584;SDS011;18191;51.288;12.390;2024-02-23T16:30:42;3.40;;;0.60;;
31584;SDS011;18191;51.288;12.390;2024-02-23T16:35:32;4.90;;;1.38;;
31584;SDS011;18191;51.288;12.390;2024-02-23T16:40:22;8.27;;;1.17;;
31584;SDS011;18191;51.288;12.390;2024-02-23T16:45:17;2.10;;;0.50;;
31584;SDS011;18191;51.288;12.390;2024-02-23T16:50:08;5.00;;;0.83;;
31584;SDS011;18191;51.288;12.390;2024-02-23T16:54:58;0.83;;;0.40;;
31584;SDS011;18191;51.288;12.390;2024-02-23T16:59:49;3.35;;;0.80;;
31584;SDS011;18191;51.288;12.390;2024-02-23T17:04:40;4.22;;;0.88;;
31584;SDS011;18191;51.288;12.390;2024-02-23T17:09:30;3.33;;;0.70;;
31584;SDS011;18191;51.288;12.390;2024-02-23T17:14:20;5.80;;;0.50;;
31584;SDS011;18191;51.288;12.390;2024-02-23T17:19:11;2.83;;;0.70;;
31584;SDS011;18191;51.288;12.390;2024-02-23T17:24:01;3.50;;;0.97;;
31584;SDS011;18191;51.288;12.390;2024-02-23T17:28:52;6.57;;;1.40;;
31584;SDS011;18191;51.288;12.390;2024-02-23T17:33:42;2.88;;;1.20;;
31584;SDS011;18191;51.288;12.390;2024-02-23T17:38:33;3.75;;;1.10;;
31584;SDS011;18191;51.288;12.390;2024-02-23T17:43:23;1.32;;;0.64;;
31584;SDS011;18191;51.288;12.390;2024-02-23T17:48:13;1.80;;;1.00;;
31584;SDS011;18191;51.288;12.390;2024-02-23T17:53:04;2.08;;;0.95;;
31584;SDS011;18191;51.288;12.390;2024-02-23T17:57:54;5.15;;;0.80;;
31584;SDS011;18191;51.288;12.390;2024-02-23T18:02:44;2.00;;;0.80;;
31584;SDS011;18191;51.288;12.390;2024-02-23T18:07:34;3.55;;;1.13;;
31584;SDS011;18191;51.288;12.390;2024-02-23T18:12:25;1.00;;;0.60;;
31584;SDS011;18191;51.288;12.390;2024-02-23T18:17:15;2.97;;;1.33;;
31584;SDS011;18191;51.288;12.390;2024-02-23T18:22:05;8.68;;;1.30;;
31584;SDS011;18191;51.288;12.390;2024-02-23T18:26:56;1.43;;;0.90;;
31584;SDS011;18191;51.288;12.390;2024-02-23T18:31:46;5.75;;;1.13;;
31584;SDS011;18191;51.288;12.390;2024-02-23T18:36:37;3.77;;;1.20;;
31584;SDS011;18191;51.288;12.390;2024-02-23T18:41:27;2.70;;;1.02;;
31584;SDS011;18191;51.288;12.390;2024-02-23T18:46:17;12.98;;;1.67;;
31584;SDS011;18191;51.288;12.390;2024-02-23T18:51:08;9.43;;;2.57;;
31584;SDS011;18191;51.288;12.390;2024-02-23T18:55:58;8.90;;;1.90;;
31584;SDS011;18191;51.288;12.390;2024-02-23T19:00:49;3.17;;;1.50;;
31584;SDS011;18191;51.288;12.390;2024-02-23T19:05:39;4.60;;;1.57;;
31584;SDS011;18191;51.288;12.390;2024-02-23T19:10:33;8.68;;;1.85;;
31584;SDS011;18191;51.288;12.390;2024-02-23T19:15:24;6.50;;;1.92;;
31584;SDS011;18191;51.288;12.390;2024-02-23T19:20:15;11.00;;;2.38;;
31584;SDS011;18191;51.288;12.390;2024-02-23T19:25:05;6.37;;;1.90;;
31584;SDS011;18191;51.288;12.390;2024-02-23T19:29:56;4.22;;;1.48;;
31584;SDS011;18191;51.288;12.390;2024-02-23T19:34:51;7.35;;;1.58;;
31584;SDS011;18191;51.288;12.390;2024-02-23T19:39:42;6.23;;;2.37;;
31584;SDS011;18191;51.288;12.390;2024-02-23T19:44:32;13.57;;;2.70;;
31584;SDS011;18191;51.288;12.390;2024-02-23T19:49:22;8.77;;;2.22;;
31584;SDS011;18191;51.288;12.390;2024-02-23T19:54:12;9.32;;;2.58;;
31584;SDS011;18191;51.288;12.390;2024-02-23T19:59:03;8.63;;;2.33;;
31584;SDS011;18191;51.288;12.390;2024-02-23T20:03:53;3.17;;;1.40;;
31584;SDS011;18191;51.288;12.390;2024-02-23T20:08:43;10.82;;;2.16;;
31584;SDS011;18191;51.288;12.390;2024-02-23T20:13:34;11.83;;;2.43;;
31584;SDS011;18191;51.288;12.390;2024-02-23T20:18:24;6.10;;;1.83;;
31584;SDS011;18191;51.288;12.390;2024-02-23T20:23:15;13.23;;;2.67;;
31584;SDS011;18191;51.288;12.390;2024-02-23T20:28:05;6.57;;;2.07;;
31584;SDS011;18191;51.288;12.390;2024-02-23T20:32:56;5.77;;;1.87;;
31584;SDS011;18191;51.288;12.390;2024-02-23T20:37:47;6.75;;;1.73;;
31584;SDS011;18191;51.288;12.390;2024-02-23T20:42:37;7.07;;;3.00;;
31584;SDS011;18191;51.288;12.390;2024-02-23T20:47:27;10.16;;;2.10;;
31584;SDS011;18191;51.288;12.390;2024-02-23T20:52:19;10.77;;;2.78;;
31584;SDS011;18191;51.288;12.390;2024-02-23T20:57:09;3.78;;;2.25;;
31584;SDS011;18191;51.288;12.390;2024-02-23T21:02:00;6.68;;;2.67;;
31584;SDS011;18191;51.288;12.390;2024-02-23T21:06:50;9.95;;;2.67;;
31584;SDS011;18191;51.288;12.390;2024-02-23T21:11:40;7.90;;;2.43;;
31584;SDS011;18191;51.288;12.390;2024-02-23T21:16:31;5.07;;;2.20;;
31584;SDS011;18191;51.288;12.390;2024-02-23T21:21:21;14.73;;;2.78;;
31584;SDS011;18191;51.288;12.390;2024-02-23T21:26:12;8.70;;;3.57;;
31584;SDS011;18191;51.288;12.390;2024-02-23T21:31:02;22.03;;;5.83;;
31584;SDS011;18191;51.288;12.390;2024-02-23T21:35:54;20.77;;;6.03;;
31584;SDS011;18191;51.288;12.390;2024-02-23T21:40:44;17.70;;;4.63;;
31584;SDS011;18191;51.288;12.390;2024-02-23T21:45:34;18.08;;;3.70;;
31584;SDS011;18191;51.288;12.390;2024-02-23T21:50:25;10.17;;;2.80;;
31584;SDS011;18191;51.288;12.390;2024-02-23T21:55:15;11.88;;;2.38;;
31584;SDS011;18191;51.288;12.390;2024-02-23T22:00:06;5.90;;;2.10;;
31584;SDS011;18191;51.288;12.390;2024-02-23T22:04:56;13.95;;;2.47;;
31584;SDS011;18191;51.288;12.390;2024-02-23T22:09:47;7.40;;;3.07;;
31584;SDS011;18191;51.288;12.390;2024-02-23T22:14:43;19.20;;;6.03;;
31584;SDS011;18191;51.288;12.390;2024-02-23T22:19:33;40.67;;;8.82;;
31584;SDS011;18191;51.288;12.390;2024-02-23T22:24:23;32.92;;;7.72;;
31584;SDS011;18191;51.288;12.390;2024-02-23T22:29:13;25.17;;;7.03;;
31584;SDS011;18191;51.288;12.390;2024-02-23T22:34:04;15.38;;;4.05;;
31584;SDS011;18191;51.288;12.390;2024-02-23T22:38:54;18.03;;;4.00;;
31584;SDS011;18191;51.288;12.390;2024-02-23T22:43:44;9.27;;;2.20;;
31584;SDS011;18191;51.288;12.390;2024-02-23T22:48:35;10.57;;;2.90;;
31584;SDS011;18191;51.288;12.390;2024-02-23T22:53:25;6.80;;;3.37;;
31584;SDS011;18191;51.288;12.390;2024-02-23T22:58:18;9.90;;;2.42;;
31584;SDS011;18191;51.288;12.390;2024-02-23T23:03:08;10.57;;;2.33;;
31584;SDS011;18191;51.288;12.390;2024-02-23T23:07:58;5.87;;;2.07;;
31584;SDS011;18191;51.288;12.390;2024-02-23T23:12:49;15.67;;;2.20;;
31584;SDS011;18191;51.288;12.390;2024-02-23T23:17:39;7.82;;;2.08;;
31584;SDS011;18191;51.288;12.390;2024-02-23T23:22:29;4.53;;;2.47;;
31584;SDS011;18191;51.288;12.390;2024-02-23T23:27:20;11.63;;;2.33;;
31584;SDS011;18191;51.288;12.390;2024-02-23T23:32:10;13.60;;;2.32;;
31584;SDS011;18191;51.288;12.390;2024-02-23T23:37:00;9.63;;;1.85;;
31584;SDS011;18191;51.288;12.390;2024-02-23T23:41:51;9.94;;;2.10;;
31584;SDS011;18191;51.288;12.390;2024-02-23T23:46:41;17.80;;;1.63;;
31584;SDS011;18191;51.288;12.390;2024-02-23T23:51:32;10.30;;;2.23;;
31584;SDS011;18191;51.288;12.390;2024-02-23T23:56:22;4.63;;;1.70;;
